METAR stanice u blizini

 

LYNI - Nis, Yugoslavia
Distance from station: JZ 40km
Ažurirano: 18/08/2019 10:30
Vedro
Vedro
 Pravac vetra varies
Vetar: varies 2 km/h
Temperatura: 23°C
Tačka rose: 13°C
Vlažnost: 53%
Pritisak: 1019 hPa
Pregled: Vedro
Vidljivost: greater than 10 km
2019/08/18 08:30 LYNI 180830Z VRB01KT CAVOK 23/13 Q1019 NOSIG
LYKV - Kraljevo, Yugoslavia
Distance from station: ZSZ 136km
Ažurirano: 18/08/2019 10:30
Vedro
Vedro
 Pravac vetra calm
Vetar: Tišina
Temperatura: 23°C
Tačka rose: 14°C
Vlažnost: 57%
Pritisak: 1018 hPa
Pregled: Vedro
Vidljivost: greater than 10 km
2019/08/18 08:30 LYKV 180830Z 00000KT CAVOK 23/14 Q1018 NOSIG
LBSF - Sofia (observato, Bulgaria
Distance from station: JI 138km
Ažurirano: 18/08/2019 10:30
Vedro
Vedro
 Pravac vetra ZSZ
Vetar: ZSZ 6 km/h
Temperatura: 23°C
Tačka rose: 10°C
Vlažnost: 44%
Pritisak: 1019 hPa
Pregled: Vedro
Vidljivost: greater than 10 km
2019/08/18 08:30 LBSF 180830Z 29003KT 210V340 CAVOK 23/10 Q1019 NOSIG
 
BKPR - Prishtina, Yugoslavia
Distance from station: JZ 147km
Ažurirano: 18/08/2019 10:30
Few Clouds
Few Clouds
 Pravac vetra varies
Vetar: varies 6 km/h
Temperatura: 22°C
Tačka rose: 11°C
Vlažnost: 50%
Pritisak: 1020 hPa
Oblaci: Few Clouds
Vidljivost: 10 km
Cloud details: Few Clouds 914 m
2019/08/18 08:30 BKPR 180830Z VRB03KT 9999 FEW030 22/11 Q1020 NOSIG
LRCV - Craiova, Romania
Distance from station: SI 154km
Ažurirano: 18/08/2019 10:30
Vedro
Vedro
 Pravac vetra varies
Vetar: varies 6 km/h
Temperatura: 26°C
Tačka rose: 11°C
Vlažnost: 39%
Pritisak: 1017 hPa
Pregled: Vedro
Vidljivost: greater than 10 km
2019/08/18 08:30 LRCV 180830Z VRB03KT CAVOK 26/11 Q1017
LWSK - Skopje/Petrovac, Macedonia
Distance from station: JJZ 185km
Ažurirano: 18/08/2019 10:30
Vedro
Vedro
 Pravac vetra varies
Vetar: varies 2 km/h
Temperatura: 25°C
Tačka rose: 10°C
Vlažnost: 39%
Pritisak: 1018 hPa
Pregled: Vedro
Vidljivost: greater than 10 km
2019/08/18 08:30 LWSK 180830Z VRB01KT CAVOK 25/10 Q1018 NOSIG
 
LYVR - Vrsac, Yugoslavia
Distance from station: SSZ 189km
Ažurirano: 18/08/2019 10:30
Few Clouds
Few Clouds
 Pravac vetra JJZ
Vetar: JJZ 6 km/h
Temperatura: 25°C
Tačka rose: 13°C
Vlažnost: 47%
Pritisak: 1017 hPa
Oblaci: Few Clouds
Vidljivost: 10 km
Cloud details: Few Clouds 1219 m
2019/08/18 08:30 LYVR 180830Z 21003KT 100V270 9999 FEW040 25/13 Q1017 NOSIG
LYUZ - Uzice-Ponikve, Yugoslavia
Distance from station: Z 207km
Ažurirano: 18/08/2019 10:30
Vedro
Vedro
 Pravac vetra varies
Vetar: varies 7 km/h
Temperatura: 21°C
Tačka rose: 9°C
Vlažnost: 46%
Pritisak: 1021 hPa
Pregled: Vedro
Vidljivost: greater than 10 km
2019/08/18 08:30 LYUZ 180830Z VRB04KT CAVOK 21/09 Q1021
LYBE - Belgrade/Surcin, Yugoslavia
Distance from station: SZ 209km
Ažurirano: 18/08/2019 10:30
Vedro
Vedro
 Pravac vetra IJI
Vetar: IJI 9 km/h
Temperatura: 27°C
Heat Index: 27°C
Tačka rose: 13°C
Vlažnost: 42%
Pritisak: 1017 hPa
Pregled: Vedro
Vidljivost: greater than 10 km
2019/08/18 08:30 LYBE 180830Z 11005KT 060V150 CAVOK 27/13 Q1017 NOSIG
 
LYBT - Batajnica, Yugoslavia
Distance from station: SZ 219km
Ažurirano: 18/08/2019 10:30
Vedro
Vedro
 Pravac vetra IJI
Vetar: IJI 7 km/h
Temperatura: 27°C
Heat Index: 27°C
Tačka rose: 13°C
Vlažnost: 42%
Pritisak: 1017 hPa
Pregled: Vedro
Vidljivost: greater than 10 km
2019/08/18 08:30 LYBT 180830Z 11004KT 020V190 CAVOK 27/13 Q1017 NOSIG
LRTR - Timisoara/Giarma, Romania
Distance from station: SSZ 260km
Ažurirano: 18/08/2019 10:30
Vedro
Vedro
 Pravac vetra JJI
Vetar: JJI 7 km/h
Temperatura: 25°C
Tačka rose: 14°C
Vlažnost: 51%
Pritisak: 1017 hPa
Pregled: Vedro
Vidljivost: greater than 10 km
2019/08/18 08:30 LRTR 180830Z 16004KT 100V220 CAVOK 25/14 Q1017 NOSIG
LBPD - Plovdiv, Bulgaria
Distance from station: JI 263km
Ažurirano: 18/08/2019 10:30
Vedro
Vedro
 Pravac vetra ZSZ
Vetar: ZSZ 17 km/h
Temperatura: 27°C
Tačka rose: 10°C
Vlažnost: 34%
Pritisak: 1017 hPa
Oblaci: Vedro
Vidljivost: 10 km
2019/08/18 08:30 LBPD 180830Z AUTO 30009KT 270V330 9999 NCD 27/10 Q1017 NOSIG
 
LYPG - Podgorica(Titogr, Yugoslavia
Distance from station: ZJZ 278km
Ažurirano: 18/08/2019 10:30
Vedro
Vedro
 Pravac vetra calm
Vetar: Tišina
Temperatura: 27°C
Tačka rose: 11°C
Vlažnost: 37%
Pritisak: 1016 hPa
Pregled: Vedro
Vidljivost: greater than 10 km
2019/08/18 08:30 LYPG 180830Z 00000KT CAVOK 27/11 Q1016 NOSIG
LBGO - Gorna Orechovist, Bulgaria
Distance from station: I 285km
Ažurirano: 18/08/2019 10:30
Vedro
Vedro
 Pravac vetra Z
Vetar: Z 6 km/h
Temperatura: 26°C
Tačka rose: 14°C
Vlažnost: 48%
Pritisak: 1017 hPa
Oblaci: Vedro
Vidljivost: 10 km
2019/08/18 08:30 LBGO 180830Z AUTO 27003KT 210V350 9999 NCD 26/14 Q1017 NOSIG
LRSB - Sibiu/Turnisor, Romania
Distance from station: SSI 286km
Ažurirano: 18/08/2019 10:30
Vedro
Vedro
 Pravac vetra S
Vetar: S 7 km/h
Temperatura: 24°C
Tačka rose: 13°C
Vlažnost: 50%
Pritisak: 1019 hPa
Pregled: Vedro
Vidljivost: greater than 10 km
2019/08/18 08:30 LRSB 180830Z 35004KT 280V080 CAVOK 24/13 Q1019
 
LWOH - Ohrid, Macedonia
Distance from station: JJZ 292km
Ažurirano: 17/08/2019 20:30
NOT Current
Few Clouds
Few Clouds
 Pravac vetra S
Vetar: S 6 km/h
Temperatura: 18°C
Tačka rose: 7°C
Vlažnost: 49%
Pritisak: 1018 hPa
Oblaci: Few Clouds
Vidljivost: 10 km
Cloud details: Few Clouds 914 m
2019/08/17 18:30 LWOH 171830Z 35003KT 9999 FEW030 18/07 Q1018
LQTZ - Tuzla, Yugoslavia
Distance from station: ZSZ 298km
Ažurirano: 18/08/2019 10:30
Vedro
Vedro
 Pravac vetra varies
Vetar: varies 4 km/h
Temperatura: 24°C
Tačka rose: 18°C
Vlažnost: 69%
Pritisak: 1017 hPa
Pregled: Vedro
Vidljivost: greater than 10 km
2019/08/18 08:30 LQTZ 180830Z VRB02KT CAVOK 24/18 Q1017
LRAR - Arad, Romania
Distance from station: SSZ 301km
Ažurirano: 18/08/2019 10:30
Vedro
Vedro
 Pravac vetra varies
Vetar: varies 7 km/h
Temperatura: 26°C
Tačka rose: 13°C
Vlažnost: 45%
Pritisak: 1017 hPa
Pregled: Vedro
Vidljivost: greater than 10 km
2019/08/18 08:30 LRAR 180830Z VRB04KT CAVOK 26/13 Q1017
 
LYTV - Tivat, Yugoslavia
Distance from station: ZJZ 315km
Ažurirano: 18/08/2019 10:30
Vedro
Vedro
 Pravac vetra varies
Vetar: varies 2 km/h
Temperatura: 29°C
Tačka rose: 13°C
Vlažnost: 37%
Pritisak: 1015 hPa
Pregled: Vedro
Vidljivost: greater than 10 km
2019/08/18 08:30 LYTV 180830Z VRB01KT CAVOK 29/13 Q1015 NOSIG
LATI - Tirana, Albania
Distance from station: JZ 316km
Ažurirano: 18/08/2019 10:20
Vedro
Vedro
 Pravac vetra SZ
Vetar: SZ 6 km/h
Temperatura: 27°C
Heat Index: 27°C
Tačka rose: 15°C
Vlažnost: 48%
Pritisak: 1016 hPa
Pregled: Vedro
Vidljivost: greater than 10 km
2019/08/18 08:20 LATI 180820Z 32003KT 280V030 CAVOK 27/15 Q1016 NOSIG
LQBK - Banja Luka, Yugoslavia
Distance from station: SZ 426km
Ažurirano: 18/08/2019 10:30
Vedro
Vedro
 Pravac vetra JJI
Vetar: JJI 9 km/h
Temperatura: 26°C
Tačka rose: 14°C
Vlažnost: 48%
Pritisak: 1016 hPa
Pregled: Vedro
Vidljivost: greater than 10 km
2019/08/18 08:30 LQBK 180830Z 15005KT CAVOK 26/14 Q1016 NOSIG
 
LDOS - Osijek, Croatia
Distance from station: SSZ 360km
Ažurirano: 18/08/2019 10:30
Vedro
Vedro
 Pravac vetra J
Vetar: J 11 km/h
Temperatura: 25°C
Tačka rose: 15°C
Vlažnost: 54%
Pritisak: 1016 hPa
Pregled: Vedro
Vidljivost: greater than 10 km
2019/08/18 08:30 LDOS 180830Z 17006KT 140V210 CAVOK 25/15 Q1016
LDDU - Dubrovnik-Cilipi, Croatia
Distance from station: JZ 352km
Ažurirano: 18/08/2019 10:30
Vedro
Vedro
 Pravac vetra varies
Vetar: varies 11 km/h
Temperatura: 30°C
Tačka rose: 14°C
Vlažnost: 38%
Pritisak: 1017 hPa
Pregled: Vedro
Vidljivost: greater than 10 km
2019/08/18 08:30 LDDU 180830Z VRB06KT CAVOK 30/14 Q1017 NOSIG
LQMO - Mostar Airport, Bosnia-Herzegovina
Distance from station: Z 359km
Ažurirano: 18/08/2019 10:30
Vedro
Vedro
 Pravac vetra varies
Vetar: varies 6 km/h
Temperatura: 26°C
Tačka rose: 12°C
Vlažnost: 42%
Pritisak: 1015 hPa
Pregled: Vedro
Vidljivost: greater than 10 km
2019/08/18 08:30 LQMO 180830Z VRB03KT CAVOK 26/12 Q1015
 
LQSA - Sarajevo/Butmir, Yugoslavia
Distance from station: Z 311km
Ažurirano: 18/08/2019 10:30
Vedro
Vedro
 Pravac vetra varies
Vetar: varies 4 km/h
Temperatura: 20°C
Tačka rose: 11°C
Vlažnost: 56%
Pritisak: 1019 hPa
Pregled: Vedro
Vidljivost: greater than 10 km
2019/08/18 08:30 LQSA 180830Z VRB02KT CAVOK 20/11 Q1019 NOSIG
LDSP - Split/Kastel Sta, Croatia
Distance from station: Z 468km
Ažurirano: 18/08/2019 10:30
Vedro
Vedro
 Pravac vetra JI
Vetar: JI 6 km/h
Temperatura: 28°C
Tačka rose: 11°C
Vlažnost: 35%
Pritisak: 1016 hPa
Pregled: Vedro
Vidljivost: greater than 10 km
2019/08/18 08:30 LDSP 180830Z 13003KT 030V170 CAVOK 28/11 Q1016 NOSIG
LDZD - Zadar/Zemunik, Croatia
Distance from station: ZSZ 567km
Ažurirano: 18/08/2019 10:30
Vedro
Vedro
 Pravac vetra varies
Vetar: varies 6 km/h
Temperatura: 29°C
Tačka rose: 11°C
Vlažnost: 33%
Pritisak: 1016 hPa
Pregled: Vedro
Vidljivost: greater than 10 km
2019/08/18 08:30 LDZD 180830Z VRB03KT CAVOK 29/11 Q1016 NOSIG
 
LDZA - Zagreb/Pleso, Croatia
Distance from station: SZ 555km
Ažurirano: 18/08/2019 10:30
Vedro
Vedro
 Pravac vetra calm
Vetar: Tišina
Temperatura: 25°C
Tačka rose: 16°C
Vlažnost: 57%
Pritisak: 1015 hPa
Pregled: Vedro
Vidljivost: greater than 10 km
2019/08/18 08:30 LDZA 180830Z 00000KT CAVOK 25/16 Q1015 NOSIG
LJCE - Cerklje, Slovenia
Distance from station: SZ 680km
Ažurirano: 18/08/2019 10:30
Vedro
Vedro
 Pravac vetra ZJZ
Vetar: ZJZ 9 km/h
Temperatura: 24°C
Tačka rose: 16°C
Vlažnost: 61%
Pritisak: 1016 hPa
Pregled: Vedro
Vidljivost: greater than 10 km
2019/08/18 08:30 LJCE 180830Z 24005KT 210V270 CAVOK 24/16 Q1016 RMK BLU
LJMB - Maribor, Slovenia
Distance from station: SZ 616km
Ažurirano: 18/08/2019 10:30
Vedro
Vedro
 Pravac vetra J
Vetar: J 9 km/h
Temperatura: 25°C
Tačka rose: 16°C
Vlažnost: 57%
Pritisak: 1015 hPa
Pregled: Vedro
Vidljivost: greater than 10 km
2019/08/18 08:30 LJMB 180830Z 19005KT 150V240 CAVOK 25/16 Q1015
 
LJLJ - Ljubljana/Brnik, Slovenia
Distance from station: SZ 671km
Ažurirano: 18/08/2019 10:30
Vedro
Vedro
 Pravac vetra varies
Vetar: varies 4 km/h
Temperatura: 23°C
Tačka rose: 16°C
Vlažnost: 65%
Pritisak: 1016 hPa
Pregled: Vedro
Vidljivost: greater than 10 km
2019/08/18 08:30 LJLJ 180830Z VRB02KT CAVOK 23/16 Q1016 NOSIG
LDRI - Rijeka, Croatia
Distance from station: SZ 650km
Ažurirano: 18/08/2019 10:30
Vedro
Vedro
 Pravac vetra Z
Vetar: Z 7 km/h
Temperatura: 26°C
Tačka rose: 18°C
Vlažnost: 61%
Pritisak: 1016 hPa
Pregled: Vedro
Vidljivost: greater than 10 km
2019/08/18 08:30 LDRI 180830Z 26004KT 230V300 CAVOK 26/18 Q1016
LDPL - Pula, Croatia
Distance from station: ZSZ 686km
Ažurirano: 18/08/2019 10:30
Vedro
Vedro
 Pravac vetra I
Vetar: I 13 km/h
Temperatura: 26°C
Tačka rose: 14°C
Vlažnost: 48%
Pritisak: 1016 hPa
Pregled: Vedro
Vidljivost: greater than 10 km
2019/08/18 08:30 LDPL 180830Z 09007KT CAVOK 26/14 Q1016 NOSIG
 
LJPZ - Portorož, Slovenia
Distance from station: ZSZ 720km
Ažurirano: 18/08/2019 10:30
Vedro
Vedro
 Pravac vetra ZSZ
Vetar: ZSZ 7 km/h
Temperatura: 27°C
Heat Index: 28°C
Tačka rose: 16°C
Vlažnost: 51%
Pritisak: 1016 hPa
Pregled: Vedro
Vidljivost: greater than 10 km
2019/08/18 08:30 LJPZ 180830Z 29004KT CAVOK 27/16 Q1016